sensor_id;sensor_type;location;lat;lon;timestamp;temperature;humidity
21061;DHT22;10689;50.836;3.266;2022-09-17T00:01:10;11.60;99.90
21061;DHT22;10689;50.836;3.266;2022-09-17T00:03:38;11.70;99.90
21061;DHT22;10689;50.836;3.266;2022-09-17T00:06:09;11.80;99.90
21061;DHT22;10689;50.836;3.266;2022-09-17T00:08:37;11.90;99.90
21061;DHT22;10689;50.836;3.266;2022-09-17T00:13:38;11.60;99.90
21061;DHT22;10689;50.836;3.266;2022-09-17T00:16:05;11.50;99.90
21061;DHT22;10689;50.836;3.266;2022-09-17T00:18:31;11.40;99.90
21061;DHT22;10689;50.836;3.266;2022-09-17T00:20:57;11.30;99.90
21061;DHT22;10689;50.836;3.266;2022-09-17T00:23:23;11.10;99.90
21061;DHT22;10689;50.836;3.266;2022-09-17T00:25:48;11.20;99.90
21061;DHT22;10689;50.836;3.266;2022-09-17T00:28:14;11.20;99.90
21061;DHT22;10689;50.836;3.266;2022-09-17T00:30:44;11.20;99.90
21061;DHT22;10689;50.836;3.266;2022-09-17T00:33:12;11.30;99.90
21061;DHT22;10689;50.836;3.266;2022-09-17T00:35:37;11.30;99.90
21061;DHT22;10689;50.836;3.266;2022-09-17T00:38:03;11.10;99.90
21061;DHT22;10689;50.836;3.266;2022-09-17T00:40:30;10.90;99.90
21061;DHT22;10689;50.836;3.266;2022-09-17T00:42:55;10.90;99.90
21061;DHT22;10689;50.836;3.266;2022-09-17T00:45:22;10.90;99.90
21061;DHT22;10689;50.836;3.266;2022-09-17T00:47:56;11.00;99.90
21061;DHT22;10689;50.836;3.266;2022-09-17T00:50:27;11.10;99.90
21061;DHT22;10689;50.836;3.266;2022-09-17T00:55:35;11.30;99.90
21061;DHT22;10689;50.836;3.266;2022-09-17T00:58:05;11.30;99.90
21061;DHT22;10689;50.836;3.266;2022-09-17T01:00:31;11.30;99.90
21061;DHT22;10689;50.836;3.266;2022-09-17T01:02:57;11.30;99.90
21061;DHT22;10689;50.836;3.266;2022-09-17T01:06:19;11.30;99.90
21061;DHT22;10689;50.836;3.266;2022-09-17T01:25:24;11.60;99.90
21061;DHT22;10689;50.836;3.266;2022-09-17T01:31:00;11.70;99.90
21061;DHT22;10689;50.836;3.266;2022-09-17T01:41:33;11.80;99.90
21061;DHT22;10689;50.836;3.266;2022-09-17T01:47:04;11.80;99.90
21061;DHT22;10689;50.836;3.266;2022-09-17T01:49:35;11.80;99.90
21061;DHT22;10689;50.836;3.266;2022-09-17T01:52:03;11.70;99.90
21061;DHT22;10689;50.836;3.266;2022-09-17T01:54:40;11.60;99.90
21061;DHT22;10689;50.836;3.266;2022-09-17T01:57:17;11.50;99.90
21061;DHT22;10689;50.836;3.266;2022-09-17T01:59:51;11.50;99.90
21061;DHT22;10689;50.836;3.266;2022-09-17T02:02:32;11.50;99.90
21061;DHT22;10689;50.836;3.266;2022-09-17T02:05:09;11.40;99.90
21061;DHT22;10689;50.836;3.266;2022-09-17T02:07:42;11.50;99.90
21061;DHT22;10689;50.836;3.266;2022-09-17T02:10:13;11.40;99.90
21061;DHT22;10689;50.836;3.266;2022-09-17T02:12:50;11.30;99.90
21061;DHT22;10689;50.836;3.266;2022-09-17T02:15:26;11.10;99.90
21061;DHT22;10689;50.836;3.266;2022-09-17T02:18:41;11.10;99.90
21061;DHT22;10689;50.836;3.266;2022-09-17T02:21:05;11.00;99.90
21061;DHT22;10689;50.836;3.266;2022-09-17T02:23:43;11.00;99.90
21061;DHT22;10689;50.836;3.266;2022-09-17T02:26:14;10.90;99.90
21061;DHT22;10689;50.836;3.266;2022-09-17T02:28:47;11.00;99.90
21061;DHT22;10689;50.836;3.266;2022-09-17T02:31:15;11.00;99.90
21061;DHT22;10689;50.836;3.266;2022-09-17T02:33:43;10.90;99.90
21061;DHT22;10689;50.836;3.266;2022-09-17T02:36:11;11.00;99.90
21061;DHT22;10689;50.836;3.266;2022-09-17T02:38:39;11.10;99.90
21061;DHT22;10689;50.836;3.266;2022-09-17T02:41:21;11.20;99.90
21061;DHT22;10689;50.836;3.266;2022-09-17T03:00:43;11.00;99.90
21061;DHT22;10689;50.836;3.266;2022-09-17T03:03:25;11.00;99.90
21061;DHT22;10689;50.836;3.266;2022-09-17T03:05:54;11.00;99.90
21061;DHT22;10689;50.836;3.266;2022-09-17T03:08:31;10.90;99.90
21061;DHT22;10689;50.836;3.266;2022-09-17T03:10:57;10.90;99.90
21061;DHT22;10689;50.836;3.266;2022-09-17T03:13:23;11.00;99.90
21061;DHT22;10689;50.836;3.266;2022-09-17T03:15:48;11.10;99.90
21061;DHT22;10689;50.836;3.266;2022-09-17T03:18:16;11.10;99.90
21061;DHT22;10689;50.836;3.266;2022-09-17T03:20:41;11.20;99.90
21061;DHT22;10689;50.836;3.266;2022-09-17T03:23:07;11.30;99.90
21061;DHT22;10689;50.836;3.266;2022-09-17T03:25:33;11.40;99.90
21061;DHT22;10689;50.836;3.266;2022-09-17T03:27:58;11.40;99.90
21061;DHT22;10689;50.836;3.266;2022-09-17T03:30:24;11.30;99.90
21061;DHT22;10689;50.836;3.266;2022-09-17T03:32:50;11.30;99.90
21061;DHT22;10689;50.836;3.266;2022-09-17T03:35:16;11.50;99.90
21061;DHT22;10689;50.836;3.266;2022-09-17T03:37:42;11.40;99.90
21061;DHT22;10689;50.836;3.266;2022-09-17T03:40:08;11.30;99.90
21061;DHT22;10689;50.836;3.266;2022-09-17T03:42:34;11.20;99.90
21061;DHT22;10689;50.836;3.266;2022-09-17T03:45:00;11.20;99.90
21061;DHT22;10689;50.836;3.266;2022-09-17T03:47:26;11.20;99.90
21061;DHT22;10689;50.836;3.266;2022-09-17T03:49:51;11.30;99.90
21061;DHT22;10689;50.836;3.266;2022-09-17T03:52:17;11.40;99.90
21061;DHT22;10689;50.836;3.266;2022-09-17T03:54:43;11.40;99.90
21061;DHT22;10689;50.836;3.266;2022-09-17T03:57:08;11.40;99.90
21061;DHT22;10689;50.836;3.266;2022-09-17T03:59:34;11.40;99.90
21061;DHT22;10689;50.836;3.266;2022-09-17T04:02:00;11.40;99.90
21061;DHT22;10689;50.836;3.266;2022-09-17T04:04:25;11.50;99.90
21061;DHT22;10689;50.836;3.266;2022-09-17T04:06:51;11.40;99.90
21061;DHT22;10689;50.836;3.266;2022-09-17T04:09:17;11.40;99.90
21061;DHT22;10689;50.836;3.266;2022-09-17T04:11:42;11.40;99.90
21061;DHT22;10689;50.836;3.266;2022-09-17T04:14:08;11.40;99.90
21061;DHT22;10689;50.836;3.266;2022-09-17T04:16:34;11.50;99.90
21061;DHT22;10689;50.836;3.266;2022-09-17T04:18:59;11.80;99.90
21061;DHT22;10689;50.836;3.266;2022-09-17T04:21:25;11.90;99.90
21061;DHT22;10689;50.836;3.266;2022-09-17T04:23:51;11.80;99.90
21061;DHT22;10689;50.836;3.266;2022-09-17T04:26:16;11.80;99.90
21061;DHT22;10689;50.836;3.266;2022-09-17T04:28:42;11.80;99.90
21061;DHT22;10689;50.836;3.266;2022-09-17T04:31:08;11.70;99.90
21061;DHT22;10689;50.836;3.266;2022-09-17T04:33:33;11.80;99.90
21061;DHT22;10689;50.836;3.266;2022-09-17T04:35:59;11.80;99.90
21061;DHT22;10689;50.836;3.266;2022-09-17T04:38:25;11.70;99.90
21061;DHT22;10689;50.836;3.266;2022-09-17T04:40:50;11.60;99.90
21061;DHT22;10689;50.836;3.266;2022-09-17T04:43:16;11.50;99.90
21061;DHT22;10689;50.836;3.266;2022-09-17T04:45:45;11.50;99.90
21061;DHT22;10689;50.836;3.266;2022-09-17T04:48:11;11.50;99.90
21061;DHT22;10689;50.836;3.266;2022-09-17T04:50:38;11.30;99.90
21061;DHT22;10689;50.836;3.266;2022-09-17T04:53:03;11.20;99.90
21061;DHT22;10689;50.836;3.266;2022-09-17T04:55:29;11.10;99.90
21061;DHT22;10689;50.836;3.266;2022-09-17T04:57:56;11.00;99.90
21061;DHT22;10689;50.836;3.266;2022-09-17T05:00:22;11.00;99.90
21061;DHT22;10689;50.836;3.266;2022-09-17T05:02:50;11.00;99.90
21061;DHT22;10689;50.836;3.266;2022-09-17T05:05:17;11.00;99.90
21061;DHT22;10689;50.836;3.266;2022-09-17T05:07:45;11.00;99.90
21061;DHT22;10689;50.836;3.266;2022-09-17T05:10:12;10.90;99.90
21061;DHT22;10689;50.836;3.266;2022-09-17T05:12:38;10.90;99.90
21061;DHT22;10689;50.836;3.266;2022-09-17T05:15:04;10.90;99.90
21061;DHT22;10689;50.836;3.266;2022-09-17T05:17:30;10.90;99.90
21061;DHT22;10689;50.836;3.266;2022-09-17T05:19:56;11.00;99.90
21061;DHT22;10689;50.836;3.266;2022-09-17T05:22:22;11.00;99.90
21061;DHT22;10689;50.836;3.266;2022-09-17T05:24:47;11.10;99.90
21061;DHT22;10689;50.836;3.266;2022-09-17T05:27:13;11.10;99.90
21061;DHT22;10689;50.836;3.266;2022-09-17T05:29:39;11.20;99.90
21061;DHT22;10689;50.836;3.266;2022-09-17T05:32:06;11.30;99.90
21061;DHT22;10689;50.836;3.266;2022-09-17T05:34:31;11.40;99.90
21061;DHT22;10689;50.836;3.266;2022-09-17T05:36:58;11.50;99.90
21061;DHT22;10689;50.836;3.266;2022-09-17T05:39:23;11.40;99.90
21061;DHT22;10689;50.836;3.266;2022-09-17T05:41:54;11.40;99.90
21061;DHT22;10689;50.836;3.266;2022-09-17T05:44:20;11.40;99.90
21061;DHT22;10689;50.836;3.266;2022-09-17T05:46:46;11.30;99.90
21061;DHT22;10689;50.836;3.266;2022-09-17T05:49:13;11.30;99.90
21061;DHT22;10689;50.836;3.266;2022-09-17T05:51:40;11.40;99.90
21061;DHT22;10689;50.836;3.266;2022-09-17T05:54:06;11.30;99.90
21061;DHT22;10689;50.836;3.266;2022-09-17T05:56:31;11.30;99.90
21061;DHT22;10689;50.836;3.266;2022-09-17T05:58:57;11.30;99.90
21061;DHT22;10689;50.836;3.266;2022-09-17T06:01:23;11.30;99.90
21061;DHT22;10689;50.836;3.266;2022-09-17T06:03:49;11.30;99.90
21061;DHT22;10689;50.836;3.266;2022-09-17T06:06:14;11.30;99.90
21061;DHT22;10689;50.836;3.266;2022-09-17T06:08:41;11.40;99.90
21061;DHT22;10689;50.836;3.266;2022-09-17T06:11:07;11.50;99.90
21061;DHT22;10689;50.836;3.266;2022-09-17T06:13:33;11.50;99.90
21061;DHT22;10689;50.836;3.266;2022-09-17T06:16:01;11.50;99.90
21061;DHT22;10689;50.836;3.266;2022-09-17T06:18:28;11.50;99.90
21061;DHT22;10689;50.836;3.266;2022-09-17T06:20:59;11.50;99.90
21061;DHT22;10689;50.836;3.266;2022-09-17T06:23:25;11.60;99.90
21061;DHT22;10689;50.836;3.266;2022-09-17T06:25:53;11.60;99.90
21061;DHT22;10689;50.836;3.266;2022-09-17T06:28:19;11.80;99.90
21061;DHT22;10689;50.836;3.266;2022-09-17T06:30:45;11.90;99.90
21061;DHT22;10689;50.836;3.266;2022-09-17T06:33:10;12.00;99.90
21061;DHT22;10689;50.836;3.266;2022-09-17T06:35:36;12.00;99.90
21061;DHT22;10689;50.836;3.266;2022-09-17T06:38:05;12.00;99.90
21061;DHT22;10689;50.836;3.266;2022-09-17T06:40:31;12.00;99.90
21061;DHT22;10689;50.836;3.266;2022-09-17T06:42:58;12.00;99.90
21061;DHT22;10689;50.836;3.266;2022-09-17T06:45:25;12.10;99.90
21061;DHT22;10689;50.836;3.266;2022-09-17T06:47:51;12.00;99.90
21061;DHT22;10689;50.836;3.266;2022-09-17T06:50:17;12.10;99.90
21061;DHT22;10689;50.836;3.266;2022-09-17T06:52:50;12.30;99.90
21061;DHT22;10689;50.836;3.266;2022-09-17T06:55:16;12.40;99.90
21061;DHT22;10689;50.836;3.266;2022-09-17T06:57:42;12.40;99.90
21061;DHT22;10689;50.836;3.266;2022-09-17T07:00:08;12.40;99.90
21061;DHT22;10689;50.836;3.266;2022-09-17T07:02:34;12.50;99.90
21061;DHT22;10689;50.836;3.266;2022-09-17T07:05:00;12.60;99.90
21061;DHT22;10689;50.836;3.266;2022-09-17T07:07:26;12.70;99.90
21061;DHT22;10689;50.836;3.266;2022-09-17T07:09:52;12.60;99.90
21061;DHT22;10689;50.836;3.266;2022-09-17T07:12:18;12.80;99.90
21061;DHT22;10689;50.836;3.266;2022-09-17T07:14:44;12.70;99.90
21061;DHT22;10689;50.836;3.266;2022-09-17T07:17:12;12.60;99.90
21061;DHT22;10689;50.836;3.266;2022-09-17T07:19:38;12.50;99.90
21061;DHT22;10689;50.836;3.266;2022-09-17T07:22:03;12.50;99.90
21061;DHT22;10689;50.836;3.266;2022-09-17T07:24:29;12.60;99.90
21061;DHT22;10689;50.836;3.266;2022-09-17T07:26:55;12.70;99.90
21061;DHT22;10689;50.836;3.266;2022-09-17T07:29:21;12.60;99.90
21061;DHT22;10689;50.836;3.266;2022-09-17T07:31:50;12.60;99.90
21061;DHT22;10689;50.836;3.266;2022-09-17T07:34:16;12.40;99.90
21061;DHT22;10689;50.836;3.266;2022-09-17T07:36:42;12.30;99.90
21061;DHT22;10689;50.836;3.266;2022-09-17T07:39:09;12.30;99.90
21061;DHT22;10689;50.836;3.266;2022-09-17T07:41:40;12.40;99.90
21061;DHT22;10689;50.836;3.266;2022-09-17T07:44:06;12.50;99.90
21061;DHT22;10689;50.836;3.266;2022-09-17T07:46:32;12.60;99.90
21061;DHT22;10689;50.836;3.266;2022-09-17T07:48:57;12.60;99.90
21061;DHT22;10689;50.836;3.266;2022-09-17T07:51:25;12.80;99.90
21061;DHT22;10689;50.836;3.266;2022-09-17T07:53:53;12.80;99.90
21061;DHT22;10689;50.836;3.266;2022-09-17T07:56:20;13.00;99.90
21061;DHT22;10689;50.836;3.266;2022-09-17T07:58:46;13.10;99.90
21061;DHT22;10689;50.836;3.266;2022-09-17T08:01:12;13.20;99.90
21061;DHT22;10689;50.836;3.266;2022-09-17T08:03:41;13.40;99.90
21061;DHT22;10689;50.836;3.266;2022-09-17T08:06:13;13.50;99.90
21061;DHT22;10689;50.836;3.266;2022-09-17T08:08:39;13.70;99.90
21061;DHT22;10689;50.836;3.266;2022-09-17T08:11:08;13.70;99.90
21061;DHT22;10689;50.836;3.266;2022-09-17T08:13:34;13.80;99.90
21061;DHT22;10689;50.836;3.266;2022-09-17T08:16:02;13.90;99.90
21061;DHT22;10689;50.836;3.266;2022-09-17T08:18:28;13.70;99.90
21061;DHT22;10689;50.836;3.266;2022-09-17T08:21:02;13.70;99.90
21061;DHT22;10689;50.836;3.266;2022-09-17T08:23:29;13.50;99.90
21061;DHT22;10689;50.836;3.266;2022-09-17T08:25:58;13.50;99.90
21061;DHT22;10689;50.836;3.266;2022-09-17T08:28:25;13.60;99.90
21061;DHT22;10689;50.836;3.266;2022-09-17T08:30:52;13.70;99.90
21061;DHT22;10689;50.836;3.266;2022-09-17T08:33:18;13.80;99.90
21061;DHT22;10689;50.836;3.266;2022-09-17T08:35:54;14.10;99.90
21061;DHT22;10689;50.836;3.266;2022-09-17T08:38:20;14.30;99.90
21061;DHT22;10689;50.836;3.266;2022-09-17T08:43:45;14.60;99.90
21061;DHT22;10689;50.836;3.266;2022-09-17T08:46:13;14.60;99.90
21061;DHT22;10689;50.836;3.266;2022-09-17T08:48:42;14.70;99.90
21061;DHT22;10689;50.836;3.266;2022-09-17T08:51:30;14.70;99.90
21061;DHT22;10689;50.836;3.266;2022-09-17T08:54:02;14.60;99.90
21061;DHT22;10689;50.836;3.266;2022-09-17T08:56:32;14.50;99.90
21061;DHT22;10689;50.836;3.266;2022-09-17T09:02:23;14.20;99.90
21061;DHT22;10689;50.836;3.266;2022-09-17T09:05:00;14.00;99.90
21061;DHT22;10689;50.836;3.266;2022-09-17T09:07:31;14.20;99.90
21061;DHT22;10689;50.836;3.266;2022-09-17T09:12:31;14.50;99.90
21061;DHT22;10689;50.836;3.266;2022-09-17T09:17:43;13.70;99.90
21061;DHT22;10689;50.836;3.266;2022-09-17T09:20:21;13.50;99.90
21061;DHT22;10689;50.836;3.266;2022-09-17T09:22:51;13.30;99.90
21061;DHT22;10689;50.836;3.266;2022-09-17T09:25:24;13.10;99.90
21061;DHT22;10689;50.836;3.266;2022-09-17T09:31:05;13.00;99.90
21061;DHT22;10689;50.836;3.266;2022-09-17T09:33:39;13.00;99.90
21061;DHT22;10689;50.836;3.266;2022-09-17T09:36:09;13.10;99.90
21061;DHT22;10689;50.836;3.266;2022-09-17T09:38:59;13.30;99.90
21061;DHT22;10689;50.836;3.266;2022-09-17T09:41:39;13.30;99.90
21061;DHT22;10689;50.836;3.266;2022-09-17T09:44:13;13.40;99.90
21061;DHT22;10689;50.836;3.266;2022-09-17T09:47:19;13.40;99.90
21061;DHT22;10689;50.836;3.266;2022-09-17T09:52:59;13.60;99.90
21061;DHT22;10689;50.836;3.266;2022-09-17T09:58:38;14.30;99.90
21061;DHT22;10689;50.836;3.266;2022-09-17T10:01:16;14.60;99.90
21061;DHT22;10689;50.836;3.266;2022-09-17T10:03:45;14.60;99.90
21061;DHT22;10689;50.836;3.266;2022-09-17T10:06:13;14.50;99.90
21061;DHT22;10689;50.836;3.266;2022-09-17T10:08:41;14.30;99.90
21061;DHT22;10689;50.836;3.266;2022-09-17T10:13:38;14.10;99.90
21061;DHT22;10689;50.836;3.266;2022-09-17T10:16:23;14.20;99.90
21061;DHT22;10689;50.836;3.266;2022-09-17T10:21:33;14.40;99.90
21061;DHT22;10689;50.836;3.266;2022-09-17T10:24:01;14.30;99.90
21061;DHT22;10689;50.836;3.266;2022-09-17T10:26:35;14.10;99.90
21061;DHT22;10689;50.836;3.266;2022-09-17T10:29:10;13.90;99.90
21061;DHT22;10689;50.836;3.266;2022-09-17T10:31:50;13.80;99.90
21061;DHT22;10689;50.836;3.266;2022-09-17T10:34:27;13.80;99.90
21061;DHT22;10689;50.836;3.266;2022-09-17T10:36:54;13.90;99.90
21061;DHT22;10689;50.836;3.266;2022-09-17T10:39:36;13.90;99.90
21061;DHT22;10689;50.836;3.266;2022-09-17T10:42:16;14.00;99.90
21061;DHT22;10689;50.836;3.266;2022-09-17T10:44:56;14.20;99.90
21061;DHT22;10689;50.836;3.266;2022-09-17T10:47:29;14.40;99.90
21061;DHT22;10689;50.836;3.266;2022-09-17T10:52:36;14.00;99.90
21061;DHT22;10689;50.836;3.266;2022-09-17T10:55:21;13.90;99.90
21061;DHT22;10689;50.836;3.266;2022-09-17T11:03:47;14.00;99.90
21061;DHT22;10689;50.836;3.266;2022-09-17T11:06:24;14.30;99.90
21061;DHT22;10689;50.836;3.266;2022-09-17T11:14:49;14.40;99.90
21061;DHT22;10689;50.836;3.266;2022-09-17T11:17:53;14.60;99.90
21061;DHT22;10689;50.836;3.266;2022-09-17T11:31:57;15.50;99.90
21061;DHT22;10689;50.836;3.266;2022-09-17T11:37:18;15.70;99.90
21061;DHT22;10689;50.836;3.266;2022-09-17T11:39:56;15.90;99.90
21061;DHT22;10689;50.836;3.266;2022-09-17T11:42:43;15.80;99.90
21061;DHT22;10689;50.836;3.266;2022-09-17T11:45:16;15.60;99.90
21061;DHT22;10689;50.836;3.266;2022-09-17T11:47:52;15.60;99.90
21061;DHT22;10689;50.836;3.266;2022-09-17T11:50:24;15.80;99.90
21061;DHT22;10689;50.836;3.266;2022-09-17T11:55:55;16.10;99.90
21061;DHT22;10689;50.836;3.266;2022-09-17T12:01:12;16.30;99.90
21061;DHT22;10689;50.836;3.266;2022-09-17T12:09:40;16.30;99.90
21061;DHT22;10689;50.836;3.266;2022-09-17T12:12:15;16.40;99.90
21061;DHT22;10689;50.836;3.266;2022-09-17T12:14:43;16.60;99.90
21061;DHT22;10689;50.836;3.266;2022-09-17T12:17:23;16.60;99.90
21061;DHT22;10689;50.836;3.266;2022-09-17T12:20:00;16.60;99.90
21061;DHT22;10689;50.836;3.266;2022-09-17T12:22:34;16.70;99.90
21061;DHT22;10689;50.836;3.266;2022-09-17T12:25:01;16.70;99.90
21061;DHT22;10689;50.836;3.266;2022-09-17T12:30:21;16.90;99.90
21061;DHT22;10689;50.836;3.266;2022-09-17T12:41:42;17.70;99.90
21061;DHT22;10689;50.836;3.266;2022-09-17T12:50:46;17.10;99.90
21061;DHT22;10689;50.836;3.266;2022-09-17T12:52:50;16.80;99.90
21061;DHT22;10689;50.836;3.266;2022-09-17T12:59:15;15.60;99.90
21061;DHT22;10689;50.836;3.266;2022-09-17T13:01:51;14.90;99.90
21061;DHT22;10689;50.836;3.266;2022-09-17T13:04:39;14.40;99.90
21061;DHT22;10689;50.836;3.266;2022-09-17T13:15:36;13.10;99.90
21061;DHT22;10689;50.836;3.266;2022-09-17T13:23:39;13.70;99.90
21061;DHT22;10689;50.836;3.266;2022-09-17T13:26:07;14.00;99.90
21061;DHT22;10689;50.836;3.266;2022-09-17T13:28:48;14.10;99.90
21061;DHT22;10689;50.836;3.266;2022-09-17T13:31:20;14.10;99.90
21061;DHT22;10689;50.836;3.266;2022-09-17T13:34:00;14.20;99.90
21061;DHT22;10689;50.836;3.266;2022-09-17T13:42:04;14.60;99.90
21061;DHT22;10689;50.836;3.266;2022-09-17T13:44:36;14.50;99.90
21061;DHT22;10689;50.836;3.266;2022-09-17T13:47:14;14.20;99.90
21061;DHT22;10689;50.836;3.266;2022-09-17T13:49:44;14.00;99.90
21061;DHT22;10689;50.836;3.266;2022-09-17T13:52:11;13.90;99.90
21061;DHT22;10689;50.836;3.266;2022-09-17T13:54:37;13.80;99.90
21061;DHT22;10689;50.836;3.266;2022-09-17T13:57:11;13.70;99.90
21061;DHT22;10689;50.836;3.266;2022-09-17T13:59:51;13.60;99.90
21061;DHT22;10689;50.836;3.266;2022-09-17T14:04:44;13.50;99.90
21061;DHT22;10689;50.836;3.266;2022-09-17T14:10:02;13.80;99.90
21061;DHT22;10689;50.836;3.266;2022-09-17T14:12:54;13.80;99.90
21061;DHT22;10689;50.836;3.266;2022-09-17T14:15:53;13.90;99.90
21061;DHT22;10689;50.836;3.266;2022-09-17T14:18:32;13.90;99.90
21061;DHT22;10689;50.836;3.266;2022-09-17T14:21:13;13.90;99.90
21061;DHT22;10689;50.836;3.266;2022-09-17T14:23:52;14.00;99.90
21061;DHT22;10689;50.836;3.266;2022-09-17T14:29:21;14.10;99.90
21061;DHT22;10689;50.836;3.266;2022-09-17T14:31:55;14.10;99.90
21061;DHT22;10689;50.836;3.266;2022-09-17T14:34:22;14.10;99.90
21061;DHT22;10689;50.836;3.266;2022-09-17T14:36:50;14.00;99.90
21061;DHT22;10689;50.836;3.266;2022-09-17T14:39:36;13.90;99.90
21061;DHT22;10689;50.836;3.266;2022-09-17T14:42:08;13.90;99.90
21061;DHT22;10689;50.836;3.266;2022-09-17T14:44:48;13.80;99.90
21061;DHT22;10689;50.836;3.266;2022-09-17T14:47:17;14.00;99.90
21061;DHT22;10689;50.836;3.266;2022-09-17T14:49:44;14.00;99.90
21061;DHT22;10689;50.836;3.266;2022-09-17T14:52:29;14.10;99.90
21061;DHT22;10689;50.836;3.266;2022-09-17T14:57:39;14.40;99.90
21061;DHT22;10689;50.836;3.266;2022-09-17T15:00:05;14.50;99.90
21061;DHT22;10689;50.836;3.266;2022-09-17T15:02:39;14.50;99.90
21061;DHT22;10689;50.836;3.266;2022-09-17T15:05:28;14.40;99.90
21061;DHT22;10689;50.836;3.266;2022-09-17T15:08:16;14.30;99.90
21061;DHT22;10689;50.836;3.266;2022-09-17T15:10:56;14.00;99.90
21061;DHT22;10689;50.836;3.266;2022-09-17T15:13:31;13.80;99.90
21061;DHT22;10689;50.836;3.266;2022-09-17T15:16:43;13.50;99.90
21061;DHT22;10689;50.836;3.266;2022-09-17T15:18:58;13.30;99.90
21061;DHT22;10689;50.836;3.266;2022-09-17T15:21:43;13.40;99.90
21061;DHT22;10689;50.836;3.266;2022-09-17T15:26:41;13.50;99.90
21061;DHT22;10689;50.836;3.266;2022-09-17T15:29:11;13.30;99.90
21061;DHT22;10689;50.836;3.266;2022-09-17T15:31:37;13.20;99.90
21061;DHT22;10689;50.836;3.266;2022-09-17T15:34:03;13.10;99.90
21061;DHT22;10689;50.836;3.266;2022-09-17T15:36:29;12.90;99.90
21061;DHT22;10689;50.836;3.266;2022-09-17T15:38:57;13.00;99.90
21061;DHT22;10689;50.836;3.266;2022-09-17T15:41:32;13.00;99.90
21061;DHT22;10689;50.836;3.266;2022-09-17T15:44:18;12.90;99.90
21061;DHT22;10689;50.836;3.266;2022-09-17T15:46:45;12.90;99.90
21061;DHT22;10689;50.836;3.266;2022-09-17T15:49:27;12.90;99.90
21061;DHT22;10689;50.836;3.266;2022-09-17T15:51:53;13.00;99.90
21061;DHT22;10689;50.836;3.266;2022-09-17T15:54:30;12.90;99.90
21061;DHT22;10689;50.836;3.266;2022-09-17T15:56:59;13.00;99.90
21061;DHT22;10689;50.836;3.266;2022-09-17T15:59:30;13.00;99.90
21061;DHT22;10689;50.836;3.266;2022-09-17T16:01:59;13.10;99.90
21061;DHT22;10689;50.836;3.266;2022-09-17T16:10:00;13.00;99.90
21061;DHT22;10689;50.836;3.266;2022-09-17T16:12:26;13.00;99.90
21061;DHT22;10689;50.836;3.266;2022-09-17T16:14:59;13.00;99.90
21061;DHT22;10689;50.836;3.266;2022-09-17T16:17:43;13.00;99.90
21061;DHT22;10689;50.836;3.266;2022-09-17T16:20:23;13.00;99.90
21061;DHT22;10689;50.836;3.266;2022-09-17T16:22:50;12.90;99.90
21061;DHT22;10689;50.836;3.266;2022-09-17T16:25:18;12.90;99.90
21061;DHT22;10689;50.836;3.266;2022-09-17T16:30:22;12.90;99.90
21061;DHT22;10689;50.836;3.266;2022-09-17T16:32:48;12.80;99.90
21061;DHT22;10689;50.836;3.266;2022-09-17T16:35:19;12.80;99.90
21061;DHT22;10689;50.836;3.266;2022-09-17T16:37:49;12.80;99.90
21061;DHT22;10689;50.836;3.266;2022-09-17T16:40:15;12.80;99.90
21061;DHT22;10689;50.836;3.266;2022-09-17T16:42:41;12.90;99.90
21061;DHT22;10689;50.836;3.266;2022-09-17T16:45:07;13.00;99.90
21061;DHT22;10689;50.836;3.266;2022-09-17T16:47:38;13.10;99.90
21061;DHT22;10689;50.836;3.266;2022-09-17T16:50:05;13.10;99.90
21061;DHT22;10689;50.836;3.266;2022-09-17T16:52:32;13.00;99.90
21061;DHT22;10689;50.836;3.266;2022-09-17T16:54:58;12.90;99.90
21061;DHT22;10689;50.836;3.266;2022-09-17T16:57:24;12.90;99.90
21061;DHT22;10689;50.836;3.266;2022-09-17T16:59:49;12.90;99.90
21061;DHT22;10689;50.836;3.266;2022-09-17T17:02:15;12.90;99.90
21061;DHT22;10689;50.836;3.266;2022-09-17T17:04:40;13.00;99.90
21061;DHT22;10689;50.836;3.266;2022-09-17T17:07:06;13.00;99.90
21061;DHT22;10689;50.836;3.266;2022-09-17T17:09:32;13.00;99.90
21061;DHT22;10689;50.836;3.266;2022-09-17T17:11:57;13.00;99.90
21061;DHT22;10689;50.836;3.266;2022-09-17T17:14:23;13.00;99.90
21061;DHT22;10689;50.836;3.266;2022-09-17T17:16:49;13.00;99.90
21061;DHT22;10689;50.836;3.266;2022-09-17T17:19:14;13.00;99.90
21061;DHT22;10689;50.836;3.266;2022-09-17T17:21:40;13.00;99.90
21061;DHT22;10689;50.836;3.266;2022-09-17T17:24:06;13.00;99.90
21061;DHT22;10689;50.836;3.266;2022-09-17T17:26:32;13.10;99.90
21061;DHT22;10689;50.836;3.266;2022-09-17T17:28:58;13.10;99.90
21061;DHT22;10689;50.836;3.266;2022-09-17T17:31:24;13.10;99.90
21061;DHT22;10689;50.836;3.266;2022-09-17T17:33:50;13.10;99.90
21061;DHT22;10689;50.836;3.266;2022-09-17T17:36:15;13.10;99.90
21061;DHT22;10689;50.836;3.266;2022-09-17T17:38:41;13.00;99.90
21061;DHT22;10689;50.836;3.266;2022-09-17T17:41:09;13.00;99.90
21061;DHT22;10689;50.836;3.266;2022-09-17T17:43:36;13.30;99.90
21061;DHT22;10689;50.836;3.266;2022-09-17T17:46:05;13.30;99.90
21061;DHT22;10689;50.836;3.266;2022-09-17T17:48:32;13.40;99.90
21061;DHT22;10689;50.836;3.266;2022-09-17T17:51:05;13.20;99.90
21061;DHT22;10689;50.836;3.266;2022-09-17T17:53:31;13.30;99.90
21061;DHT22;10689;50.836;3.266;2022-09-17T17:55:58;13.20;99.90
21061;DHT22;10689;50.836;3.266;2022-09-17T17:58:25;13.20;99.90
21061;DHT22;10689;50.836;3.266;2022-09-17T18:00:50;13.10;99.90
21061;DHT22;10689;50.836;3.266;2022-09-17T18:03:16;13.10;99.90
21061;DHT22;10689;50.836;3.266;2022-09-17T18:05:42;13.00;99.90
21061;DHT22;10689;50.836;3.266;2022-09-17T18:08:08;13.00;99.90
21061;DHT22;10689;50.836;3.266;2022-09-17T18:10:33;13.10;99.90
21061;DHT22;10689;50.836;3.266;2022-09-17T18:12:59;13.10;99.90
21061;DHT22;10689;50.836;3.266;2022-09-17T18:15:25;13.00;99.90
21061;DHT22;10689;50.836;3.266;2022-09-17T18:17:51;12.90;99.90
21061;DHT22;10689;50.836;3.266;2022-09-17T18:20:18;12.90;99.90
21061;DHT22;10689;50.836;3.266;2022-09-17T18:22:44;12.90;99.90
21061;DHT22;10689;50.836;3.266;2022-09-17T18:25:09;12.80;99.90
21061;DHT22;10689;50.836;3.266;2022-09-17T18:27:35;12.80;99.90
21061;DHT22;10689;50.836;3.266;2022-09-17T18:30:01;12.70;99.90
21061;DHT22;10689;50.836;3.266;2022-09-17T18:32:26;12.60;99.90
21061;DHT22;10689;50.836;3.266;2022-09-17T18:34:53;12.60;99.90
21061;DHT22;10689;50.836;3.266;2022-09-17T18:37:19;12.50;99.90
21061;DHT22;10689;50.836;3.266;2022-09-17T18:39:44;12.60;99.90
21061;DHT22;10689;50.836;3.266;2022-09-17T18:42:10;12.50;99.90
21061;DHT22;10689;50.836;3.266;2022-09-17T18:44:36;12.50;99.90
21061;DHT22;10689;50.836;3.266;2022-09-17T18:47:02;12.40;99.90
21061;DHT22;10689;50.836;3.266;2022-09-17T18:49:28;12.40;99.90